Terminal Aerodrome Forecast
Issued by NWS

Home | Current Version | Previous Version | Text Only | Print | Product List | Glossary On
Versions: 1 2 3 4 5 6 7 8 9 10 11 12 13 14 15 16 17 18 19 20 21 22 23 24 25 26 27 28 29 30 31 32 33 34 35 36 37 38 39 40
000
FTUS46 KLOX 291600 AAE
TAFLAX
TAF AMD
KLAX 291601Z 2916/3018 VRB03KT 1 1/2SM BR OVC003
     FM291630 12006KT 3SM BR OVC003
     FM291800 18006KT 6SM HZ SCT005
     FM292000 25010KT P6SM SCT250
     FM300400 VRB05KT P6SM SCT250
     FM300700 VRB05KT 6SM BR SCT006
     FM301000 VRB05KT 2SM BR BKN002
     FM301700 VRB03KT 4SM BR BKN250=

USA.gov is the U.S. government's official web portal to all federal, state and local government web resources and services.